Time;durP1;ratioP1;P1;durP2;ratioP2;P2;SDS_P1;SDS_P2;PMS_P1;PMS_P2;Temp;Humidity;BMP_temperature;BMP_pressure;BME280_temperature;BME280_humidity;BME280_pressure;Samples;Min_cycle;Max_cycle;Signal;HPM_P1;HPM_P2
2021/10/04 00:01:46;;;;;;;;;;;12.30;99.90;;;;;;8387002;28;20004;-72
2021/10/04 00:05:48;;;;;;;;;;;12.30;99.90;;;;;;8384582;28;19920;-72
2021/10/04 00:09:50;;;;;;;;;;;12.40;99.90;;;;;;8389809;28;19964;-72
2021/10/04 00:13:51;;;;;;;;;;;12.30;99.90;;;;;;8388505;28;19960;-72
2021/10/04 00:17:53;;;;;;;;;;;12.30;99.90;;;;;;8371408;28;20382;-72
2021/10/04 00:21:55;;;;;;;;;;;12.30;99.90;;;;;;8377251;28;19921;-72
2021/10/04 00:25:56;;;;;;;;;;;12.30;99.90;;;;;;8396172;28;19921;-72
2021/10/04 00:30:05;;;;;;;;;;;12.20;99.90;;;;;;8387218;28;19986;-73
2021/10/04 00:34:06;;;;;;;;;;;12.30;99.90;;;;;;8390573;28;19921;-72
2021/10/04 00:38:08;;;;;;;;;;;12.20;99.90;;;;;;8388040;28;19959;-73
2021/10/04 00:42:10;;;;;;;;;;;12.20;99.90;;;;;;8387919;28;19928;-72
2021/10/04 00:46:11;;;;;;;;;;;12.20;99.90;;;;;;8390181;28;19927;-73
2021/10/04 00:50:15;;;;;;;;;;;12.20;99.90;;;;;;8388976;28;20265;-72
2021/10/04 00:54:16;;;;;;;;;;;12.20;99.90;;;;;;8385988;28;20303;-72
2021/10/04 00:58:18;;;;;;;;;;;12.20;99.90;;;;;;8388302;28;19928;-73
2021/10/04 01:02:20;;;;;;;;;;;12.20;99.90;;;;;;8385891;28;20356;-73
2021/10/04 01:06:22;;;;;;;;;;;12.20;99.90;;;;;;8391341;28;19928;-72
2021/10/04 01:10:23;;;;;;;;;;;12.20;99.90;;;;;;8388259;28;19928;-73
2021/10/04 01:14:25;;;;;;;;;;;12.20;99.90;;;;;;8373372;28;19933;-72
2021/10/04 01:18:27;;;;;;;;;;;12.20;99.90;;;;;;8391883;28;19927;-73
2021/10/04 01:22:28;;;;;;;;;;;12.20;99.90;;;;;;8384639;28;19939;-72
2021/10/04 01:26:30;;;;;;;;;;;12.20;99.90;;;;;;8391359;28;19928;-73
2021/10/04 01:30:32;;;;;;;;;;;12.10;99.90;;;;;;8406443;28;19928;-72
2021/10/04 01:34:34;;;;;;;;;;;12.10;99.90;;;;;;8390072;28;19924;-73
2021/10/04 01:38:36;;;;;;;;;;;12.10;99.90;;;;;;8393501;28;19920;-73
2021/10/04 01:42:38;;;;;;;;;;;12.10;99.90;;;;;;8393408;28;19928;-72
2021/10/04 01:46:40;;;;;;;;;;;12.10;99.90;;;;;;8389438;28;19921;-72
2021/10/04 01:50:41;;;;;;;;;;;12.10;99.90;;;;;;8389773;28;20498;-72
2021/10/04 01:54:43;;;;;;;;;;;12.10;99.90;;;;;;8388615;28;19921;-73
2021/10/04 01:58:45;;;;;;;;;;;12.10;99.90;;;;;;8390656;28;19946;-73
2021/10/04 02:02:48;;;;;;;;;;;12.10;99.90;;;;;;8392706;28;20026;-73
2021/10/04 02:06:51;;;;;;;;;;;12.10;99.90;;;;;;8392112;28;20439;-72
2021/10/04 02:10:53;;;;;;;;;;;12.10;99.90;;;;;;8375268;28;20272;-73
2021/10/04 02:14:54;;;;;;;;;;;12.00;99.90;;;;;;8358439;28;20330;-73
2021/10/04 02:18:56;;;;;;;;;;;12.10;99.90;;;;;;8353911;28;19927;-73
2021/10/04 02:23:05;;;;;;;;;;;12.00;99.90;;;;;;8351959;28;19925;-73
2021/10/04 02:27:07;;;;;;;;;;;12.00;99.90;;;;;;8356798;28;19920;-72
2021/10/04 02:31:08;;;;;;;;;;;12.00;99.90;;;;;;8353874;28;19925;-73
2021/10/04 02:35:10;;;;;;;;;;;12.00;99.90;;;;;;8354790;28;20024;-73
2021/10/04 02:39:12;;;;;;;;;;;12.00;99.90;;;;;;8357505;28;19920;-73
2021/10/04 02:43:18;;;;;;;;;;;12.00;99.90;;;;;;8357413;28;19920;-72
2021/10/04 02:47:19;;;;;;;;;;;12.10;99.90;;;;;;8357511;28;19920;-73
2021/10/04 02:51:21;;;;;;;;;;;12.10;99.90;;;;;;8358251;28;20352;-73
2021/10/04 02:55:23;;;;;;;;;;;12.10;99.90;;;;;;8354825;28;19920;-73
2021/10/04 02:59:24;;;;;;;;;;;12.10;99.90;;;;;;8372508;28;19928;-72
2021/10/04 03:03:26;;;;;;;;;;;12.00;99.90;;;;;;8353600;28;19948;-73
2021/10/04 03:07:27;;;;;;;;;;;12.00;99.90;;;;;;8374043;28;19927;-72
2021/10/04 03:11:29;;;;;;;;;;;11.90;99.90;;;;;;8392635;28;19920;-72
2021/10/04 03:15:31;;;;;;;;;;;11.90;99.90;;;;;;8391270;28;19920;-73
2021/10/04 03:19:33;;;;;;;;;;;11.90;99.90;;;;;;8388445;28;19935;-72
2021/10/04 03:23:34;;;;;;;4.20;1.98;;;11.80;99.90;;;;;;8390719;28;19920;-73
2021/10/04 03:27:36;;;;;;;6.13;2.08;;;11.80;99.90;;;;;;8389470;28;20141;-73
2021/10/04 03:31:38;;;;;;;3.72;1.67;;;11.80;99.90;;;;;;8383336;28;20045;-73
2021/10/04 03:35:40;;;;;;;6.50;2.00;;;11.80;99.90;;;;;;8390057;28;20044;-73
2021/10/04 03:39:42;;;;;;;4.78;1.70;;;11.80;99.90;;;;;;8369684;28;20045;-73
2021/10/04 03:43:44;;;;;;;6.60;1.70;;;11.80;99.90;;;;;;8374162;28;20531;-72
2021/10/04 03:47:46;;;;;;;6.05;1.80;;;11.80;99.90;;;;;;8389651;28;20049;-73
2021/10/04 03:51:48;;;;;;;4.25;1.50;;;11.80;99.90;;;;;;8391583;28;20361;-73
2021/10/04 03:55:50;;;;;;;8.23;1.70;;;11.80;99.90;;;;;;8387592;28;20091;-73
2021/10/04 03:59:52;;;;;;;4.60;1.75;;;11.80;99.90;;;;;;8366800;28;20048;-73
2021/10/04 04:03:54;;;;;;;4.93;1.95;;;11.70;99.90;;;;;;8389744;28;20044;-72
2021/10/04 04:07:56;;;;;;;6.25;2.20;;;11.70;99.90;;;;;;8386323;28;20048;-73
2021/10/04 04:11:58;;;;;;;6.40;1.92;;;11.70;99.90;;;;;;8386356;28;20045;-73
2021/10/04 04:16:00;;;;;;;7.35;2.28;;;11.70;99.90;;;;;;8388911;28;20067;-72
2021/10/04 04:20:06;;;;;;;4.03;1.70;;;11.60;99.90;;;;;;8377317;28;20076;-73
2021/10/04 04:24:08;;;;;;;5.55;1.80;;;11.60;99.90;;;;;;8381202;28;20056;-73
2021/10/04 04:28:10;;;;;;;4.82;1.98;;;11.60;99.90;;;;;;8386612;28;20400;-73
2021/10/04 04:32:12;;;;;;;3.97;1.70;;;11.70;99.90;;;;;;8394357;28;20469;-73
2021/10/04 04:36:14;;;;;;;6.38;1.63;;;11.70;99.90;;;;;;8382554;28;20445;-73
2021/10/04 04:40:17;;;;;;;5.93;1.80;;;11.70;99.90;;;;;;8389842;28;20068;-72
2021/10/04 04:44:19;;;;;;;5.32;1.60;;;11.70;99.90;;;;;;8389147;28;20476;-72
2021/10/04 04:48:21;;;;;;;3.42;1.52;;;11.70;99.90;;;;;;8377740;28;20927;-72
2021/10/04 04:52:22;;;;;;;5.90;1.65;;;11.70;99.90;;;;;;8378412;28;20044;-72
2021/10/04 04:56:24;;;;;;;6.28;1.88;;;11.70;99.90;;;;;;8387269;28;20045;-72
2021/10/04 05:00:26;;;;;;;5.25;1.80;;;11.70;99.90;;;;;;8395058;28;20048;-71
2021/10/04 05:04:30;;;;;;;5.40;1.65;;;11.70;99.90;;;;;;8391740;28;20095;-72
2021/10/04 05:08:31;;;;;;;5.50;1.70;;;11.70;99.90;;;;;;8390165;28;20378;-72
2021/10/04 05:12:34;;;;;;;6.60;2.05;;;11.70;99.90;;;;;;8395086;28;20142;-71
2021/10/04 05:16:36;;;;;;;;;;;11.60;99.90;;;;;;8391556;28;20771;-72
2021/10/04 05:20:37;;;;;;;;;;;11.60;99.90;;;;;;8383118;28;19939;-72
2021/10/04 05:24:39;;;;;;;;;;;11.60;99.90;;;;;;8391263;28;19928;-72
2021/10/04 05:28:41;;;;;;;;;;;11.60;99.90;;;;;;8384645;28;20421;-71
2021/10/04 05:32:42;;;;;;;;;;;11.60;99.90;;;;;;8382062;28;20288;-71
2021/10/04 05:36:44;;;;;;;;;;;11.60;99.90;;;;;;8377438;28;20409;-71
2021/10/04 05:40:46;;;;;;;;;;;11.60;99.90;;;;;;8361184;28;19939;-73
2021/10/04 05:44:49;;;;;;;;;;;11.60;99.90;;;;;;8401891;28;19928;-72
2021/10/04 05:48:51;;;;;;;;;;;11.60;99.90;;;;;;8393611;28;19982;-71
2021/10/04 05:52:53;;;;;;;;;;;11.60;99.90;;;;;;8383141;28;20392;-71
2021/10/04 05:56:54;;;;;;;;;;;11.60;99.90;;;;;;8376367;28;20010;-71
2021/10/04 06:00:56;;;;;;;;;;;11.60;99.90;;;;;;8376057;28;20316;-72
2021/10/04 06:04:58;;;;;;;;;;;11.60;99.90;;;;;;8369548;28;19952;-71
2021/10/04 06:08:59;;;;;;;;;;;11.60;99.90;;;;;;8378120;28;19977;-71
2021/10/04 06:13:01;;;;;;;;;;;11.60;99.90;;;;;;8381848;28;19952;-72
2021/10/04 06:17:03;;;;;;;;;;;11.60;99.90;;;;;;8388367;28;19924;-72
2021/10/04 06:21:04;;;;;;;;;;;11.60;99.90;;;;;;8382096;28;19920;-71
2021/10/04 06:25:08;;;;;;;;;;;11.60;99.90;;;;;;8384520;28;19924;-72
2021/10/04 06:29:09;;;;;;;;;;;11.70;99.90;;;;;;8388091;28;20283;-72
2021/10/04 06:33:11;;;;;;;;;;;11.70;99.90;;;;;;8388161;28;20035;-71
2021/10/04 06:37:13;;;;;;;;;;;11.70;99.90;;;;;;8402256;28;19927;-71
2021/10/04 06:41:14;;;;;;;;;;;11.70;99.90;;;;;;8389351;28;19920;-72
2021/10/04 06:45:16;;;;;;;;;;;11.70;99.90;;;;;;8390548;28;19943;-72
2021/10/04 06:49:18;;;;;;;;;;;11.70;99.90;;;;;;8391128;28;19925;-72
2021/10/04 06:53:20;;;;;;;;;;;11.60;99.90;;;;;;8368641;28;19932;-71
2021/10/04 06:57:22;;;;;;;;;;;11.60;99.90;;;;;;8371275;28;19920;-72
2021/10/04 07:01:24;;;;;;;;;;;11.60;99.90;;;;;;8387771;28;19928;-71
2021/10/04 07:05:25;;;;;;;;;;;11.60;99.90;;;;;;8386695;28;20011;-71
2021/10/04 07:09:27;;;;;;;;;;;11.60;99.90;;;;;;8382936;28;19927;-71
2021/10/04 07:13:29;;;;;;;;;;;11.60;99.90;;;;;;8350636;28;19925;-71
2021/10/04 07:17:31;;;;;;;;;;;11.70;99.90;;;;;;8354059;28;19920;-71
2021/10/04 07:21:32;;;;;;;;;;;11.70;99.90;;;;;;8350164;28;19940;-71
2021/10/04 07:25:34;;;;;;;;;;;11.80;99.90;;;;;;8330583;28;20007;-71
2021/10/04 07:29:36;;;;;;;;;;;11.80;99.90;;;;;;8327904;28;19951;-72
2021/10/04 07:33:38;;;;;;;;;;;12.00;99.90;;;;;;8361932;28;20518;-71
2021/10/04 07:37:39;;;;;;;;;;;12.00;99.90;;;;;;8326156;28;19929;-72
2021/10/04 07:41:43;;;;;;;;;;;12.10;99.90;;;;;;8327769;28;19929;-72
2021/10/04 07:45:44;;;;;;;;;;;12.20;99.90;;;;;;8357037;28;19921;-72
2021/10/04 07:49:46;;;;;;;;;;;12.30;99.90;;;;;;8328897;28;19947;-71
2021/10/04 07:53:50;;;;;;;;;;;12.40;99.90;;;;;;8329318;28;19921;-71
2021/10/04 07:57:51;;;;;;;;;;;12.50;99.90;;;;;;8326702;28;19971;-71
2021/10/04 08:01:53;;;;;;;;;;;12.60;99.90;;;;;;8327851;28;19952;-72
2021/10/04 08:05:55;;;;;;;;;;;12.70;99.90;;;;;;8354359;28;19925;-72
2021/10/04 08:09:56;;;;;;;;;;;12.80;99.90;;;;;;8347444;28;19920;-72
2021/10/04 08:13:58;;;;;;;;;;;12.90;99.90;;;;;;8363882;28;19920;-72
2021/10/04 08:18:00;;;;;;;;;;;12.90;99.90;;;;;;8366601;28;19932;-73
2021/10/04 08:22:01;;;;;;;;;;;13.00;99.90;;;;;;8368581;28;19921;-73
2021/10/04 08:26:04;;;;;;;;;;;13.10;99.90;;;;;;8369011;28;19971;-73
2021/10/04 08:30:06;;;;;;;;;;;13.20;99.90;;;;;;8363763;28;19924;-72
2021/10/04 08:34:08;;;;;;;;;;;13.30;99.90;;;;;;8363138;28;19920;-72
2021/10/04 08:38:10;;;;;;;;;;;13.40;99.90;;;;;;8367416;28;19921;-72
2021/10/04 08:42:12;;;;;;;;;;;13.40;99.90;;;;;;8367895;28;19934;-72
2021/10/04 08:46:14;;;;;;;;;;;13.60;99.90;;;;;;8362544;28;19925;-72
2021/10/04 08:50:16;;;;;;;;;;;13.70;99.90;;;;;;8364452;28;20039;-72
2021/10/04 08:54:24;;;;;;;;;;;13.80;99.90;;;;;;8364492;28;19932;-72
2021/10/04 08:58:26;;;;;;;;;;;13.90;99.90;;;;;;8369443;28;20432;-72
2021/10/04 09:02:30;;;;;;;;;;;13.90;99.90;;;;;;8361976;28;19978;-73
2021/10/04 09:06:33;;;;;;;;;;;14.10;99.90;;;;;;8362913;28;19933;-72
2021/10/04 09:10:38;;;;;;;;;;;14.20;99.90;;;;;;8365076;28;19998;-73
2021/10/04 09:14:39;;;;;;;;;;;14.30;99.90;;;;;;8359165;28;19925;-71
2021/10/04 09:18:41;;;;;;;;;;;14.50;99.90;;;;;;8364101;28;19932;-72
2021/10/04 09:22:43;;;;;;;;;;;14.60;99.90;;;;;;8364561;28;19944;-72
2021/10/04 09:26:45;;;;;;;;;;;14.70;99.90;;;;;;8359853;28;19925;-72
2021/10/04 09:30:46;;;;;;;;;;;14.90;99.90;;;;;;8364863;28;19928;-72
2021/10/04 09:34:48;;;;;;;;;;;15.00;99.90;;;;;;8366024;28;19933;-72
2021/10/04 09:39:07;;;;;;;;;;;15.20;99.90;;;;;;8360060;28;20380;-72
2021/10/04 09:43:29;;;;;;;;;;;15.20;99.90;;;;;;8349040;28;19940;-71
2021/10/04 09:47:38;;;;;;;;;;;15.20;99.90;;;;;;8360300;28;19928;-72
2021/10/04 09:51:51;;;;;;;;;;;15.20;99.90;;;;;;8366643;28;19935;-72
2021/10/04 09:55:52;;;;;;;;;;;15.30;99.90;;;;;;8361903;28;20506;-72
2021/10/04 09:59:54;;;;;;;;;;;15.30;99.90;;;;;;8362575;28;20004;-73
2021/10/04 10:03:56;;;;;;;;;;;15.40;99.90;;;;;;8363749;28;19925;-72
2021/10/04 10:07:58;;;;;;;;;;;15.50;99.90;;;;;;8322897;28;1055898;-72
2021/10/04 10:12:15;;;;;;;;;;;15.50;99.90;;;;;;8365843;28;19933;-73
2021/10/04 10:16:21;;;;;;;;;;;15.70;99.90;;;;;;8364131;28;19928;-72
2021/10/04 10:20:23;;;;;;;;;;;15.80;99.90;;;;;;8363767;28;19926;-72
2021/10/04 10:24:31;;;;;;;;;;;15.90;99.90;;;;;;8365588;28;20394;-72
2021/10/04 10:28:33;;;;;;;;;;;16.00;99.90;;;;;;8363389;28;20471;-72
2021/10/04 10:32:35;;;;;;;;;;;16.10;99.90;;;;;;8368079;28;19974;-72
2021/10/04 10:36:55;;;;;;;;;;;16.20;99.90;;;;;;8365841;28;19928;-72
2021/10/04 10:41:17;;;;;;;;;;;16.30;99.90;;;;;;8363152;28;19924;-72
2021/10/04 10:45:18;;;;;;;;;;;16.50;99.90;;;;;;8360659;28;19975;-72
2021/10/04 10:49:39;;;;;;;;;;;16.50;99.90;;;;;;8361861;28;19920;-71
2021/10/04 10:53:41;;;;;;;;;;;16.50;99.90;;;;;;8362179;28;20617;-73
2021/10/04 10:57:52;;;;;;;;;;;16.50;99.90;;;;;;8363324;28;20330;-72
2021/10/04 11:01:53;;;;;;;;;;;16.50;99.90;;;;;;8361210;28;19973;-71
2021/10/04 11:05:57;;;;;;;;;;;16.50;99.90;;;;;;8361760;28;20063;-72
2021/10/04 11:10:05;;;;;;;;;;;16.60;99.90;;;;;;8362770;28;20419;-72
2021/10/04 11:14:13;;;;;;;;;;;16.70;99.90;;;;;;8362320;28;20347;-72
2021/10/04 11:18:15;;;;;;;;;;;16.80;99.90;;;;;;8361789;28;20715;-72
2021/10/04 11:22:18;;;;;;;;;;;16.80;99.90;;;;;;8357673;28;19929;-72
2021/10/04 11:26:22;;;;;;;;;;;16.90;99.90;;;;;;8354457;28;19925;-72
2021/10/04 11:30:24;;;;;;;;;;;16.90;99.90;;;;;;8359155;28;19978;-72
2021/10/04 11:34:25;;;;;;;;;;;17.00;99.90;;;;;;8362516;28;19932;-72
2021/10/04 11:38:28;;;;;;;;;;;17.00;99.90;;;;;;8355691;28;19929;-72
2021/10/04 11:42:32;;;;;;;;;;;16.90;99.90;;;;;;8360375;28;20391;-72
2021/10/04 11:46:36;;;;;;;;;;;17.00;99.90;;;;;;8364414;28;19940;-72
2021/10/04 11:50:45;;;;;;;;;;;16.90;99.90;;;;;;8360617;28;19979;-72
2021/10/04 11:54:47;;;;;;;;;;;16.90;99.90;;;;;;8363224;28;19973;-71
2021/10/04 11:58:55;;;;;;;;;;;17.00;99.90;;;;;;8362566;28;19932;-72
2021/10/04 12:02:57;;;;;;;;;;;17.10;99.90;;;;;;8363217;28;19936;-72
2021/10/04 12:06:59;;;;;;;;;;;17.20;99.90;;;;;;8361468;28;19925;-72
2021/10/04 12:11:02;;;;;;;;;;;17.20;99.90;;;;;;8360772;28;20058;-72
2021/10/04 12:15:05;;;;;;;;;;;17.30;99.90;;;;;;8358986;28;19932;-71
2021/10/04 12:19:07;;;;;;;;;;;17.40;99.90;;;;;;8359345;28;19924;-72
2021/10/04 12:23:12;;;;;;;;;;;17.40;99.90;;;;;;8344179;28;19932;-71
2021/10/04 12:27:15;;;;;;;;;;;17.40;99.90;;;;;;8358374;28;19920;-72
2021/10/04 12:31:29;;;;;;;;;;;17.40;99.90;;;;;;8364775;28;20005;-73
2021/10/04 12:35:31;;;;;;;;;;;17.40;99.90;;;;;;8357367;28;19936;-72
2021/10/04 12:39:41;;;;;;;;;;;17.40;99.90;;;;;;8363445;28;19959;-71
2021/10/04 12:43:43;;;;;;;;;;;17.40;99.90;;;;;;8362123;28;21553;-72
2021/10/04 12:48:03;;;;;;;;;;;17.40;99.90;;;;;;8359213;28;19944;-72
2021/10/04 12:52:06;;;;;;;;;;;17.40;99.90;;;;;;8362180;28;19921;-71
2021/10/04 12:56:08;;;;;;;;;;;17.50;99.90;;;;;;8366435;28;25070;-72
2021/10/04 13:00:10;;;;;;;;;;;17.60;99.90;;;;;;8371015;28;19920;-72
2021/10/04 13:04:11;;;;;;;;;;;17.50;99.90;;;;;;8369840;28;19925;-72
2021/10/04 13:08:13;;;;;;;;;;;17.60;99.90;;;;;;8372546;28;20389;-72
2021/10/04 13:12:16;;;;;;;;;;;17.70;99.90;;;;;;8368484;28;20364;-72
2021/10/04 13:16:18;;;;;;;;;;;17.70;99.90;;;;;;8367020;28;20351;-72
2021/10/04 13:20:19;;;;;;;;;;;17.70;99.90;;;;;;8383032;28;19959;-71
2021/10/04 13:24:21;;;;;;;;;;;17.80;99.90;;;;;;8365653;28;19924;-72
2021/10/04 13:28:24;;;;;;;;;;;17.70;99.90;;;;;;8368030;28;20288;-71
2021/10/04 13:32:25;;;;;;;;;;;17.50;99.90;;;;;;8364443;28;20241;-72
2021/10/04 13:36:27;;;;;;;;;;;17.60;99.90;;;;;;8370886;28;19924;-72
2021/10/04 13:40:31;;;;;;;;;;;17.70;99.90;;;;;;8366137;28;19920;-72
2021/10/04 13:44:32;;;;;;;;;;;17.80;99.90;;;;;;8368479;28;19925;-72
2021/10/04 13:48:35;;;;;;;;;;;17.80;99.90;;;;;;8370525;28;19951;-72
2021/10/04 13:52:37;;;;;;;;;;;17.80;99.90;;;;;;8362592;28;19921;-72
2021/10/04 13:56:39;;;;;;;;;;;17.70;99.90;;;;;;8363610;28;19931;-72
2021/10/04 14:00:41;;;;;;;;;;;17.70;99.90;;;;;;8367437;28;20537;-72
2021/10/04 14:04:42;;;;;;;;;;;17.70;99.90;;;;;;8363902;28;20015;-72
2021/10/04 14:08:44;;;;;;;;;;;17.80;99.90;;;;;;8365746;28;19989;-72
2021/10/04 14:12:46;;;;;;;;;;;17.80;99.90;;;;;;8368127;28;19920;-72
2021/10/04 14:16:47;;;;;;;;;;;17.90;99.90;;;;;;8363517;28;19925;-72
2021/10/04 14:20:50;;;;;;;;;;;18.00;99.90;;;;;;8364060;28;19925;-72
2021/10/04 14:24:51;;;;;;;;;;;18.00;99.90;;;;;;8373750;28;19928;-71
2021/10/04 14:28:53;;;;;;;;;;;18.10;99.90;;;;;;8364382;28;20378;-72
2021/10/04 14:32:54;;;;;;;;;;;18.20;99.90;;;;;;8362543;28;19932;-71
2021/10/04 14:36:56;;;;;;;;;;;18.10;99.90;;;;;;8359556;28;19921;-72
2021/10/04 14:40:58;;;;;;;;;;;18.00;99.90;;;;;;8357926;28;20061;-72
2021/10/04 14:45:01;;;;;;;;;;;17.90;99.90;;;;;;8365024;28;19935;-72
2021/10/04 14:49:04;;;;;;;;;;;17.60;99.90;;;;;;8364342;28;20316;-73
2021/10/04 14:53:05;;;;;;;;;;;17.50;99.90;;;;;;8365012;28;19935;-73
2021/10/04 14:57:07;;;;;;;;;;;17.40;99.90;;;;;;8359682;28;19958;-72
2021/10/04 15:01:09;;;;;;;;;;;17.40;99.90;;;;;;8359301;28;19925;-72
2021/10/04 15:05:11;;;;;;;;;;;17.40;99.90;;;;;;8355327;28;19933;-71
2021/10/04 15:09:13;;;;;;;;;;;17.50;99.90;;;;;;8360737;28;25146;-71
2021/10/04 15:13:16;;;;;;;;;;;17.50;99.90;;;;;;8360448;28;19924;-72
2021/10/04 15:17:18;;;;;;;;;;;17.50;99.90;;;;;;8360614;28;19932;-71
2021/10/04 15:21:19;;;;;;;;;;;17.50;99.90;;;;;;8356360;28;19929;-72
2021/10/04 15:25:21;;;;;;;;;;;17.60;99.90;;;;;;8359426;28;19924;-72
2021/10/04 15:29:24;;;;;;;;;;;17.70;99.90;;;;;;8362297;28;19920;-72
2021/10/04 15:33:26;;;;;;;;;;;17.70;99.90;;;;;;8362718;28;19921;-72
2021/10/04 15:37:27;;;;;;;;;;;17.70;99.90;;;;;;8358583;28;19925;-72
2021/10/04 15:41:29;;;;;;;;;;;17.70;99.90;;;;;;8362543;28;19927;-73
2021/10/04 15:45:31;;;;;;;;;;;17.70;99.90;;;;;;8358163;28;24083;-72
2021/10/04 15:49:32;;;;;;;;;;;17.70;99.90;;;;;;8360863;28;19936;-72
2021/10/04 15:53:34;;;;;;;;;;;17.70;99.90;;;;;;8353674;28;20363;-72
2021/10/04 15:57:36;;;;;;;;;;;17.60;99.90;;;;;;8352651;28;19955;-72
2021/10/04 16:01:38;;;;;;;;;;;17.60;99.90;;;;;;8353324;28;20283;-72
2021/10/04 16:05:41;;;;;;;;;;;17.60;99.90;;;;;;8361374;28;20022;-72
2021/10/04 16:09:43;;;;;;;;;;;17.50;99.90;;;;;;8354004;28;19925;-72
2021/10/04 16:13:45;;;;;;;;;;;17.50;99.90;;;;;;8368099;28;19928;-72
2021/10/04 16:17:46;;;;;;;;;;;17.50;99.90;;;;;;8352538;28;19921;-73
2021/10/04 16:21:48;;;;;;;;;;;17.50;99.90;;;;;;8352385;28;19927;-72
2021/10/04 16:25:50;;;;;;;;;;;17.40;99.90;;;;;;8365473;28;20306;-72
2021/10/04 16:29:52;;;;;;;;;;;17.30;99.90;;;;;;8346598;28;19924;-72
2021/10/04 16:33:53;;;;;;;;;;;17.20;99.90;;;;;;8353007;28;25071;-72
2021/10/04 16:37:55;;;;;;;;;;;17.10;99.90;;;;;;8358466;28;19950;-72
2021/10/04 16:41:57;;;;;;;;;;;17.10;99.90;;;;;;8360371;28;20478;-72
2021/10/04 16:46:02;;;;;;;;;;;16.90;99.90;;;;;;8355613;28;20273;-72
2021/10/04 16:50:04;;;;;;;;;;;16.90;99.90;;;;;;8360566;28;20039;-72
2021/10/04 16:54:06;;;;;;;;;;;16.80;99.90;;;;;;8356062;28;24144;-73
2021/10/04 16:58:07;;;;;;;5.15;0.95;;;16.80;99.90;;;;;;8359056;28;20605;-72
2021/10/04 17:02:09;;;;;;;;;;;16.80;99.90;;;;;;8346690;28;25101;-72
2021/10/04 17:06:13;;;;;;;;;;;16.70;99.90;;;;;;8357333;28;19928;-73
2021/10/04 17:10:15;;;;;;;;;;;16.60;99.90;;;;;;8360086;28;19970;-73
2021/10/04 17:14:16;;;;;;;;;;;16.50;99.90;;;;;;8362489;28;24074;-72
2021/10/04 17:18:18;;;;;;;;;;;16.40;99.90;;;;;;8382914;28;19939;-72
2021/10/04 17:22:20;;;;;;;;;;;16.40;99.90;;;;;;8367890;28;24088;-73
2021/10/04 17:26:22;;;;;;;;;;;16.40;99.90;;;;;;8368977;28;19928;-72
2021/10/04 17:30:23;;;;;;;;;;;16.40;99.90;;;;;;8369931;28;20384;-72
2021/10/04 17:34:25;;;;;;;;;;;16.40;99.90;;;;;;8366252;28;19933;-72
2021/10/04 17:38:27;;;;;;;;;;;16.30;99.90;;;;;;8371424;28;19963;-73
2021/10/04 17:42:29;;;;;;;;;;;16.30;99.90;;;;;;8367799;28;20292;-72
2021/10/04 17:46:31;;;;;;;;;;;16.20;99.90;;;;;;8368695;28;19921;-73
2021/10/04 17:50:33;;;;;;;6.03;1.25;;;16.20;99.90;;;;;;8364321;28;19939;-73
2021/10/04 17:54:34;;;;;;;;;;;16.10;99.90;;;;;;8366734;28;19933;-72
2021/10/04 17:58:36;;;;;;;;;;;16.10;99.90;;;;;;8346328;28;19928;-72
2021/10/04 18:02:38;;;;;;;;;;;16.10;99.90;;;;;;8366604;28;19929;-72
2021/10/04 18:06:40;;;;;;;;;;;16.10;99.90;;;;;;8359724;28;19928;-73
2021/10/04 18:10:43;;;;;;;;;;;16.00;99.90;;;;;;8365894;28;19932;-72
2021/10/04 18:14:44;;;;;;;;;;;15.90;99.90;;;;;;8365012;28;19921;-72
2021/10/04 18:18:46;;;;;;;;;;;15.90;99.90;;;;;;8367871;28;19927;-73
2021/10/04 18:22:48;;;;;;;;;;;15.90;99.90;;;;;;8367206;28;19947;-73
2021/10/04 18:26:50;;;;;;;;;;;15.80;99.90;;;;;;8362908;28;19935;-72
2021/10/04 18:30:51;;;;;;;;;;;15.80;99.90;;;;;;8365440;28;19925;-73
2021/10/04 18:34:53;;;;;;;;;;;15.70;99.90;;;;;;8361196;28;19920;-72
2021/10/04 18:38:54;;;;;;;;;;;15.70;99.90;;;;;;8363259;28;19920;-72
2021/10/04 18:42:56;;;;;;;;;;;15.60;99.90;;;;;;8367106;28;19920;-73
2021/10/04 18:46:59;;;;;;;;;;;15.60;99.90;;;;;;8363747;28;19940;-72
2021/10/04 18:51:01;;;;;;;;;;;15.50;99.90;;;;;;8365005;28;19924;-72
2021/10/04 18:55:03;;;;;;;;;;;15.50;99.90;;;;;;8365998;28;19983;-73
2021/10/04 18:59:05;;;;;;;;;;;15.50;99.90;;;;;;8368136;28;19951;-73
2021/10/04 19:03:07;;;;;;;;;;;15.50;99.90;;;;;;8353806;28;19932;-73
2021/10/04 19:07:09;;;;;;;;;;;15.50;99.90;;;;;;8361740;28;20347;-72
2021/10/04 19:11:11;;;;;;;;;;;15.50;99.90;;;;;;8364939;28;19927;-72
2021/10/04 19:15:13;;;;;;;;;;;15.50;99.90;;;;;;8345818;28;19928;-72
2021/10/04 19:19:15;;;;;;;;;;;15.40;99.90;;;;;;8362059;28;19921;-72
2021/10/04 19:23:17;;;;;;;;;;;15.30;99.90;;;;;;8369700;28;20025;-72
2021/10/04 19:27:20;;;;;;;;;;;15.30;99.90;;;;;;8366206;28;19924;-72
2021/10/04 19:31:22;;;;;;;;;;;15.30;99.90;;;;;;8361427;28;19920;-72
2021/10/04 19:35:23;;;;;;;;;;;15.20;99.90;;;;;;8349034;28;19927;-72
2021/10/04 19:39:25;;;;;;;;;;;15.10;99.90;;;;;;8366090;28;19920;-72
2021/10/04 19:43:27;;;;;;;;;;;15.00;99.90;;;;;;8364340;28;20319;-73
2021/10/04 19:47:28;;;;;;;;;;;15.00;99.90;;;;;;8367509;28;19997;-72
2021/10/04 19:51:30;;;;;;;;;;;14.90;99.90;;;;;;8342870;28;19924;-72
2021/10/04 19:55:32;;;;;;;;;;;14.90;99.90;;;;;;8354517;28;20376;-73
2021/10/04 19:59:34;;;;;;;;;;;14.90;99.90;;;;;;8342304;28;20394;-72
2021/10/04 20:03:36;;;;;;;;;;;14.80;99.90;;;;;;8361595;28;19924;-72
2021/10/04 20:07:38;;;;;;;;;;;14.80;99.90;;;;;;8368628;28;19928;-72
2021/10/04 20:11:40;;;;;;;;;;;14.80;99.90;;;;;;8373226;28;19929;-72
2021/10/04 20:15:41;;;;;;;;;;;14.70;99.90;;;;;;8372062;28;19944;-72
2021/10/04 20:19:43;;;;;;;;;;;14.70;99.90;;;;;;8370890;28;19993;-72
2021/10/04 20:23:44;;;;;;;;;;;14.80;99.90;;;;;;8367312;28;20367;-73
2021/10/04 20:27:46;;;;;;;;;;;14.70;99.90;;;;;;8371221;28;20284;-72
2021/10/04 20:31:49;;;;;;;;;;;14.70;99.90;;;;;;8370217;28;19925;-73
2021/10/04 20:35:50;;;;;;;;;;;14.70;99.90;;;;;;8370714;28;19924;-73
2021/10/04 20:39:52;;;;;;;;;;;14.70;99.90;;;;;;8370671;28;20837;-73
2021/10/04 20:43:54;;;;;;;;;;;14.70;99.90;;;;;;8371444;28;20908;-72
2021/10/04 20:47:55;;;;;;;;;;;14.70;99.90;;;;;;8368241;28;19970;-73
2021/10/04 20:51:57;;;;;;;;;;;14.60;99.90;;;;;;8368750;28;19982;-73
2021/10/04 20:55:59;;;;;;;;;;;14.60;99.90;;;;;;8354412;28;19966;-72
2021/10/04 21:00:00;;;;;;;;;;;14.60;99.90;;;;;;8372820;28;20243;-72
2021/10/04 21:04:02;;;;;;;;;;;14.60;99.90;;;;;;8384522;28;20261;-72
2021/10/04 21:08:04;;;;;;;;;;;14.60;99.90;;;;;;8393602;28;19928;-72
2021/10/04 21:12:06;;;;;;;;;;;14.50;99.90;;;;;;8405020;28;19975;-72
2021/10/04 21:16:08;;;;;;;;;;;14.50;99.90;;;;;;8408297;28;19950;-73
2021/10/04 21:20:10;;;;;;;;;;;14.50;99.90;;;;;;8390213;28;19924;-73
2021/10/04 21:24:11;;;;;;;;;;;14.50;99.90;;;;;;8392417;28;20381;-72
2021/10/04 21:28:13;;;;;;;;;;;14.50;99.90;;;;;;8391406;28;19920;-73
2021/10/04 21:32:16;;;;;;;;;;;14.50;99.90;;;;;;8392657;28;20364;-72
2021/10/04 21:36:18;;;;;;;;;;;14.40;99.90;;;;;;8388293;28;19928;-72
2021/10/04 21:40:20;;;;;;;;;;;14.40;99.90;;;;;;8405218;28;19920;-73
2021/10/04 21:44:21;;;;;;;;;;;14.40;99.90;;;;;;8391816;28;19931;-72
2021/10/04 21:48:23;;;;;;;;;;;14.40;99.90;;;;;;8394981;28;19928;-73
2021/10/04 21:52:28;;;;;;;;;;;14.40;99.90;;;;;;8393476;28;19928;-72
2021/10/04 21:56:30;;;;;;;;;;;14.40;99.90;;;;;;8390084;28;19920;-72
2021/10/04 22:13:33;;;;;;;3.30;1.30;;;14.20;99.90;;;;;;8394460;28;20048;-72
2021/10/04 22:17:35;;;;;;;7.03;1.67;;;14.10;99.90;;;;;;8407745;28;20052;-72
2021/10/04 22:21:37;;;;;;;5.65;1.40;;;14.10;99.90;;;;;;8365777;28;20041;-73
2021/10/04 22:25:38;;;;;;;3.88;1.50;;;14.00;99.90;;;;;;8372387;28;20047;-72
2021/10/04 22:29:40;;;;;;;5.38;1.75;;;14.00;99.90;;;;;;8389624;28;20060;-73
2021/10/04 22:33:43;;;;;;;5.90;1.73;;;14.00;99.90;;;;;;8371843;28;20503;-73
2021/10/04 22:37:44;;;;;;;7.95;1.80;;;13.90;99.90;;;;;;8388805;28;20064;-72
2021/10/04 22:41:46;;;;;;;;;;;13.90;99.90;;;;;;8374021;28;20095;-73
2021/10/04 22:45:48;;;;;;;;;;;13.90;99.90;;;;;;8387027;28;19920;-73
2021/10/04 22:49:50;;;;;;;;;;;13.80;99.90;;;;;;8390415;28;19964;-73
2021/10/04 22:53:52;;;;;;;7.45;2.10;;;13.80;99.90;;;;;;8388717;28;20287;-72
2021/10/04 22:57:54;;;;;;;;;;;13.70;99.90;;;;;;8390016;28;20052;-73
2021/10/04 23:01:55;;;;;;;;;;;13.70;99.90;;;;;;8385433;28;20322;-72
2021/10/04 23:05:57;;;;;;;;;;;13.60;99.90;;;;;;8385331;28;19944;-72
2021/10/04 23:09:59;;;;;;;;;;;13.60;99.90;;;;;;8389311;28;19932;-72
2021/10/04 23:14:00;;;;;;;;;;;13.60;99.90;;;;;;8389225;28;20574;-73
2021/10/04 23:18:02;;;;;;;;;;;13.60;99.90;;;;;;8406805;28;19924;-72
2021/10/04 23:27:07;;;;;;;;;;;13.50;99.90;;;;;;8382595;28;19927;-72
2021/10/04 23:31:18;;;;;;;;;;;13.50;99.90;;;;;;8388293;28;19978;-72